createdAt,value
2023-04-30T00:01:22.677Z,11.40
2023-04-30T00:03:49.494Z,11.40
2023-04-30T00:06:16.345Z,11.40
2023-04-30T00:08:43.055Z,11.40
2023-04-30T00:11:09.758Z,11.40
2023-04-30T00:13:36.402Z,11.30
2023-04-30T00:16:03.171Z,11.30
2023-04-30T00:18:29.854Z,11.20
2023-04-30T00:20:56.507Z,11.10
2023-04-30T00:23:23.317Z,11.10
2023-04-30T00:25:49.940Z,11.00
2023-04-30T00:28:16.626Z,11.00
2023-04-30T00:30:43.261Z,11.00
2023-04-30T00:33:10.002Z,11.10
2023-04-30T00:35:36.726Z,11.10
2023-04-30T00:38:03.418Z,11.20
2023-04-30T00:40:30.378Z,11.20
2023-04-30T00:42:57.056Z,11.20
2023-04-30T00:45:23.763Z,11.20
2023-04-30T00:47:50.751Z,11.20
2023-04-30T00:50:17.570Z,11.20
2023-04-30T00:52:44.693Z,11.20
2023-04-30T00:55:14.686Z,11.20
2023-04-30T00:57:41.472Z,11.20
2023-04-30T01:00:10.865Z,11.30
2023-04-30T01:02:38.470Z,11.30
2023-04-30T01:05:07.306Z,11.20
2023-04-30T01:07:36.201Z,11.20
2023-04-30T01:10:03.299Z,11.20
2023-04-30T01:12:47.194Z,11.10
2023-04-30T01:15:35.653Z,11.00
2023-04-30T01:18:30.051Z,11.00
2023-04-30T01:21:04.653Z,11.00
2023-04-30T01:24:05.468Z,11.00
2023-04-30T01:27:05.748Z,11.00
2023-04-30T01:29:34.672Z,10.90
2023-04-30T01:32:02.737Z,10.70
2023-04-30T01:34:29.524Z,10.60
2023-04-30T01:37:16.135Z,10.60
2023-04-30T01:40:02.033Z,10.50
2023-04-30T01:42:47.262Z,10.60
2023-04-30T01:45:27.599Z,10.60
2023-04-30T01:48:08.518Z,10.50
2023-04-30T01:50:47.273Z,10.50
2023-04-30T01:53:24.523Z,10.50
2023-04-30T01:55:57.305Z,10.60
2023-04-30T01:58:24.845Z,10.60
2023-04-30T02:00:52.141Z,10.60
2023-04-30T02:03:19.113Z,10.50
2023-04-30T02:05:45.859Z,10.50
2023-04-30T02:08:12.602Z,10.50
2023-04-30T02:10:39.446Z,10.50
2023-04-30T02:13:06.265Z,10.50
2023-04-30T02:15:33.063Z,10.50
2023-04-30T02:17:59.775Z,10.50
2023-04-30T02:20:26.700Z,10.50
2023-04-30T02:22:53.337Z,10.50
2023-04-30T02:25:20.051Z,10.50
2023-04-30T02:27:46.772Z,10.50
2023-04-30T02:30:13.559Z,10.50
2023-04-30T02:32:40.535Z,10.40
2023-04-30T02:35:07.709Z,10.40
2023-04-30T02:37:34.421Z,10.50
2023-04-30T02:40:01.163Z,10.40
2023-04-30T02:42:27.895Z,10.30
2023-04-30T02:44:54.553Z,10.30
2023-04-30T02:47:21.405Z,10.30
2023-04-30T02:49:48.234Z,10.30
2023-04-30T02:52:14.882Z,10.20
2023-04-30T02:54:41.592Z,10.20
2023-04-30T02:57:08.271Z,10.20
2023-04-30T02:59:34.971Z,10.20
2023-04-30T03:02:01.603Z,10.20
2023-04-30T03:04:28.238Z,10.20
2023-04-30T03:06:55.613Z,10.20
2023-04-30T03:09:22.309Z,10.10
2023-04-30T03:11:49.329Z,10.10
2023-04-30T03:14:16.102Z,10.10
2023-04-30T03:16:42.927Z,10.00
2023-04-30T03:19:09.636Z,10.10
2023-04-30T03:21:36.365Z,10.10
2023-04-30T03:24:03.038Z,10.10
2023-04-30T03:26:30.033Z,10.00
2023-04-30T03:28:56.696Z,10.00
2023-04-30T03:31:23.488Z,9.90
2023-04-30T03:33:50.200Z,9.90
2023-04-30T03:36:16.952Z,9.90
2023-04-30T03:38:43.642Z,9.90
2023-04-30T03:41:10.512Z,10.00
2023-04-30T03:43:38.011Z,10.00
2023-04-30T03:46:04.762Z,10.00
2023-04-30T03:48:31.494Z,10.00
2023-04-30T03:50:58.170Z,10.00
2023-04-30T03:53:26.475Z,9.90
2023-04-30T03:55:54.564Z,9.80
2023-04-30T03:58:22.135Z,9.80
2023-04-30T04:00:49.044Z,9.70
2023-04-30T04:03:16.473Z,9.70
2023-04-30T04:05:43.243Z,9.70
2023-04-30T04:08:10.884Z,9.70
2023-04-30T04:10:38.754Z,9.70
2023-04-30T04:13:06.457Z,9.60
2023-04-30T04:15:33.882Z,9.60
2023-04-30T04:18:00.761Z,9.60
2023-04-30T04:20:27.683Z,9.60
2023-04-30T04:22:54.385Z,9.60
2023-04-30T04:25:25.015Z,9.70
2023-04-30T04:27:52.447Z,9.80
2023-04-30T04:30:19.279Z,9.80
2023-04-30T04:32:51.870Z,9.80
2023-04-30T04:35:19.309Z,9.90
2023-04-30T04:37:46.094Z,9.90
2023-04-30T04:40:13.520Z,9.90
2023-04-30T04:42:40.218Z,9.90
2023-04-30T04:45:08.124Z,10.00
2023-04-30T04:47:34.900Z,10.10
2023-04-30T04:50:01.670Z,10.10
2023-04-30T04:52:28.388Z,9.90
2023-04-30T04:54:55.138Z,10.00
2023-04-30T04:57:21.931Z,10.10
2023-04-30T04:59:48.617Z,10.20
2023-04-30T05:02:15.480Z,10.20
2023-04-30T05:04:42.215Z,10.30
2023-04-30T05:07:08.926Z,10.30
2023-04-30T05:09:35.772Z,10.30
2023-04-30T05:12:02.455Z,10.30
2023-04-30T05:14:29.211Z,10.20
2023-04-30T05:16:55.910Z,10.20
2023-04-30T05:19:22.622Z,10.30
2023-04-30T05:21:49.312Z,10.30
2023-04-30T05:24:16.474Z,10.30
2023-04-30T05:26:43.354Z,10.30
2023-04-30T05:29:12.347Z,10.30
2023-04-30T05:31:39.206Z,10.40
2023-04-30T05:34:05.926Z,10.50
2023-04-30T05:36:32.590Z,10.60
2023-04-30T05:38:59.884Z,10.80
2023-04-30T05:41:26.656Z,10.90
2023-04-30T05:43:53.426Z,10.90
2023-04-30T05:46:20.480Z,10.90
2023-04-30T05:48:48.349Z,11.00
2023-04-30T05:51:15.294Z,11.00
2023-04-30T05:53:42.521Z,10.90
2023-04-30T05:56:09.413Z,11.00
2023-04-30T05:58:36.230Z,11.20
2023-04-30T06:01:03.293Z,11.20
2023-04-30T06:03:30.274Z,11.30
2023-04-30T06:05:57.128Z,11.50
2023-04-30T06:08:23.885Z,11.60
2023-04-30T06:10:51.196Z,11.80
2023-04-30T06:13:18.314Z,11.90
2023-04-30T06:15:46.010Z,11.60
2023-04-30T06:18:14.239Z,11.40
2023-04-30T06:20:41.579Z,11.50
2023-04-30T06:23:09.609Z,11.40
2023-04-30T06:25:36.309Z,11.40
2023-04-30T06:28:03.082Z,11.80
2023-04-30T06:30:31.633Z,11.70
2023-04-30T06:32:58.369Z,12.10
2023-04-30T06:35:25.534Z,12.40
2023-04-30T06:37:52.185Z,12.40
2023-04-30T06:40:19.019Z,12.50
2023-04-30T06:42:47.467Z,12.70
2023-04-30T06:45:15.470Z,12.60
2023-04-30T06:47:42.929Z,12.50
2023-04-30T06:50:10.095Z,12.60
2023-04-30T06:52:36.886Z,12.80
2023-04-30T06:55:03.756Z,12.90
2023-04-30T06:57:31.169Z,13.30
2023-04-30T06:59:57.903Z,13.50
2023-04-30T07:02:24.731Z,13.60
2023-04-30T07:04:51.526Z,13.30
2023-04-30T07:07:18.457Z,13.60
2023-04-30T07:09:45.124Z,13.70
2023-04-30T07:12:13.770Z,13.80
2023-04-30T07:14:40.654Z,13.70
2023-04-30T07:17:07.520Z,13.80
2023-04-30T07:19:34.226Z,13.70
2023-04-30T07:22:01.218Z,13.50
2023-04-30T07:24:28.075Z,13.40
2023-04-30T07:26:55.095Z,13.40
2023-04-30T07:29:22.417Z,13.30
2023-04-30T07:31:49.607Z,13.40
2023-04-30T07:34:16.318Z,13.20
2023-04-30T07:36:43.013Z,13.40
2023-04-30T07:39:11.806Z,13.80
2023-04-30T07:41:38.593Z,14.20
2023-04-30T07:44:05.699Z,14.00
2023-04-30T07:46:32.569Z,13.90
2023-04-30T07:48:59.514Z,14.10
2023-04-30T07:51:26.930Z,14.20
2023-04-30T07:53:54.036Z,13.80
2023-04-30T07:56:21.698Z,14.00
2023-04-30T07:58:48.416Z,14.30
2023-04-30T08:01:15.661Z,14.50
2023-04-30T08:03:42.442Z,14.90
2023-04-30T08:06:09.279Z,15.30
2023-04-30T08:08:36.163Z,15.10
2023-04-30T08:11:02.969Z,14.80
2023-04-30T08:13:29.662Z,14.80
2023-04-30T08:15:56.342Z,14.70
2023-04-30T08:18:23.210Z,14.70
2023-04-30T08:20:49.972Z,14.70
2023-04-30T08:23:16.977Z,14.80
2023-04-30T08:25:43.696Z,15.10
2023-04-30T08:28:10.392Z,15.50
2023-04-30T08:30:37.052Z,15.80
2023-04-30T08:33:03.933Z,16.10
2023-04-30T08:35:30.736Z,15.60
2023-04-30T08:37:57.497Z,16.00
2023-04-30T08:40:43.479Z,16.70
2023-04-30T08:43:11.743Z,17.00
2023-04-30T08:45:38.700Z,17.20
2023-04-30T08:48:08.176Z,17.00
2023-04-30T08:50:35.139Z,16.60
2023-04-30T08:53:02.207Z,16.80
2023-04-30T08:55:29.013Z,16.60
2023-04-30T08:57:55.716Z,16.40
2023-04-30T09:00:22.434Z,15.80
2023-04-30T09:02:50.164Z,15.80
2023-04-30T09:05:16.977Z,15.40
2023-04-30T09:08:02.421Z,15.00
2023-04-30T09:10:33.610Z,14.90
2023-04-30T09:13:10.153Z,15.70
2023-04-30T09:15:38.745Z,15.50
2023-04-30T09:18:10.912Z,14.50
2023-04-30T09:20:38.683Z,14.50
2023-04-30T09:23:10.581Z,14.60
2023-04-30T09:25:41.798Z,13.90
2023-04-30T09:28:13.541Z,13.90
2023-04-30T09:30:41.197Z,14.20
2023-04-30T09:33:11.400Z,14.20
2023-04-30T09:35:40.113Z,14.10
2023-04-30T09:38:07.070Z,14.40
2023-04-30T09:40:42.756Z,14.40
2023-04-30T09:43:09.565Z,14.00
2023-04-30T09:45:52.901Z,13.90
2023-04-30T09:48:24.386Z,13.90
2023-04-30T09:50:52.059Z,13.60
2023-04-30T09:53:21.035Z,14.00
2023-04-30T09:55:49.809Z,14.30
2023-04-30T09:58:17.988Z,14.50
2023-04-30T10:00:47.085Z,14.70
2023-04-30T10:03:15.077Z,14.90
2023-04-30T10:05:46.944Z,14.70
2023-04-30T10:08:31.434Z,14.80
2023-04-30T10:11:07.121Z,15.10
2023-04-30T10:13:42.943Z,15.20
2023-04-30T10:16:47.866Z,15.10
2023-04-30T10:19:25.827Z,15.30
2023-04-30T10:21:52.871Z,15.40
2023-04-30T10:24:20.770Z,15.30
2023-04-30T10:26:49.228Z,15.50
2023-04-30T10:29:17.525Z,15.50
2023-04-30T10:31:49.614Z,15.50
2023-04-30T10:34:40.990Z,15.80
2023-04-30T10:37:38.249Z,15.90
2023-04-30T10:40:05.767Z,15.80
2023-04-30T10:42:35.375Z,16.00
2023-04-30T10:45:03.779Z,16.10
2023-04-30T10:47:31.046Z,16.20
2023-04-30T10:50:24.131Z,16.30
2023-04-30T10:53:05.417Z,16.50
2023-04-30T10:55:32.932Z,16.60
2023-04-30T10:57:59.729Z,16.60
2023-04-30T11:00:28.885Z,16.90
2023-04-30T11:03:03.912Z,16.70
2023-04-30T11:05:38.238Z,16.30
2023-04-30T11:08:06.287Z,16.50
2023-04-30T11:10:34.675Z,16.60
2023-04-30T11:13:10.230Z,16.60
2023-04-30T11:15:45.578Z,16.40
2023-04-30T11:18:13.791Z,16.20
2023-04-30T11:20:44.420Z,16.00
2023-04-30T11:23:25.053Z,15.90
2023-04-30T11:26:01.146Z,16.00
2023-04-30T11:28:28.598Z,16.00
2023-04-30T11:30:57.924Z,16.10
2023-04-30T11:33:29.626Z,16.50
2023-04-30T11:35:57.455Z,17.20
2023-04-30T11:38:30.050Z,17.70
2023-04-30T11:40:57.973Z,17.90
2023-04-30T11:43:29.600Z,18.00
2023-04-30T11:46:03.603Z,18.10
2023-04-30T11:48:38.127Z,18.20
2023-04-30T11:51:18.687Z,18.10
2023-04-30T11:53:52.810Z,17.70
2023-04-30T11:56:21.488Z,17.80
2023-04-30T11:58:49.562Z,17.70
2023-04-30T12:01:17.135Z,16.70
2023-04-30T12:03:53.231Z,16.90
2023-04-30T12:06:23.811Z,16.70
2023-04-30T12:09:01.163Z,16.80
2023-04-30T12:11:29.900Z,16.80
2023-04-30T12:14:00.935Z,16.30
2023-04-30T12:16:29.406Z,16.50
2023-04-30T12:18:56.205Z,16.60
2023-04-30T12:21:23.600Z,17.10
2023-04-30T12:23:50.830Z,17.30
2023-04-30T12:26:18.157Z,17.40
2023-04-30T12:28:49.091Z,17.60
2023-04-30T12:31:19.001Z,17.90
2023-04-30T12:33:54.219Z,17.60
2023-04-30T12:36:20.983Z,17.40
2023-04-30T12:38:47.664Z,17.20
2023-04-30T12:41:15.364Z,16.90
2023-04-30T12:43:42.092Z,16.90
2023-04-30T12:46:08.810Z,17.10
2023-04-30T12:48:50.475Z,17.00
2023-04-30T12:51:20.660Z,16.90
2023-04-30T12:53:47.656Z,17.00
2023-04-30T12:56:16.757Z,17.20
2023-04-30T12:58:47.274Z,17.50
2023-04-30T13:01:17.233Z,17.70
2023-04-30T13:03:44.069Z,17.60
2023-04-30T13:06:10.897Z,17.50
2023-04-30T13:08:49.812Z,17.70
2023-04-30T13:11:25.990Z,17.70
2023-04-30T13:13:55.240Z,18.20
2023-04-30T13:16:22.985Z,18.80
2023-04-30T13:18:49.704Z,18.80
2023-04-30T13:21:16.423Z,18.80
2023-04-30T13:23:52.097Z,19.20
2023-04-30T13:26:21.548Z,19.60
2023-04-30T13:28:48.344Z,19.60
2023-04-30T13:31:15.324Z,19.20
2023-04-30T13:33:42.243Z,19.40
2023-04-30T13:36:08.953Z,19.30
2023-04-30T13:38:35.722Z,19.00
2023-04-30T13:41:02.405Z,19.10
2023-04-30T13:43:29.225Z,19.10
2023-04-30T13:45:55.975Z,19.20
2023-04-30T13:48:22.827Z,19.40
2023-04-30T13:50:49.795Z,19.70
2023-04-30T13:53:16.560Z,19.50
2023-04-30T13:55:43.358Z,19.60
2023-04-30T13:58:10.108Z,19.50
2023-04-30T14:00:36.919Z,19.20
2023-04-30T14:03:05.758Z,18.90
2023-04-30T14:05:34.613Z,18.60
2023-04-30T14:08:01.502Z,18.90
2023-04-30T14:10:28.231Z,18.80
2023-04-30T14:12:55.933Z,18.90
2023-04-30T14:15:22.769Z,18.90
2023-04-30T14:17:49.544Z,19.20
2023-04-30T14:20:16.631Z,19.40
2023-04-30T14:22:43.370Z,19.10
2023-04-30T14:25:10.427Z,19.40
2023-04-30T14:27:37.373Z,19.20
2023-04-30T14:30:04.472Z,18.60
2023-04-30T14:32:31.298Z,18.60
2023-04-30T14:34:58.022Z,18.30
2023-04-30T14:37:25.278Z,18.20
2023-04-30T14:39:52.220Z,18.30
2023-04-30T14:42:18.996Z,18.40
2023-04-30T14:44:45.642Z,18.60
2023-04-30T14:47:12.443Z,18.80
2023-04-30T14:49:39.236Z,18.70
2023-04-30T14:52:06.093Z,18.40
2023-04-30T14:54:33.061Z,18.20
2023-04-30T14:56:59.754Z,18.10
2023-04-30T14:59:27.083Z,18.30
2023-04-30T15:01:53.857Z,18.10
2023-04-30T15:04:21.074Z,18.10
2023-04-30T15:06:47.893Z,18.00
2023-04-30T15:09:14.650Z,18.00
2023-04-30T15:11:41.361Z,18.10
2023-04-30T15:14:08.030Z,18.10
2023-04-30T15:16:35.161Z,17.80
2023-04-30T15:19:02.102Z,17.60
2023-04-30T15:21:28.939Z,17.60
2023-04-30T15:23:55.615Z,17.50
2023-04-30T15:26:22.393Z,17.60
2023-04-30T15:28:49.104Z,17.40
2023-04-30T15:31:15.776Z,17.40
2023-04-30T15:33:42.496Z,17.30
2023-04-30T15:36:10.924Z,17.30
2023-04-30T15:38:37.691Z,17.30
2023-04-30T15:41:04.756Z,17.20
2023-04-30T15:43:32.399Z,17.30
2023-04-30T15:45:59.267Z,17.00
2023-04-30T15:48:26.340Z,16.70
2023-04-30T15:50:53.071Z,16.70
2023-04-30T15:53:19.790Z,16.80
2023-04-30T15:55:48.653Z,16.90
2023-04-30T15:58:16.166Z,16.90
2023-04-30T16:00:43.209Z,16.90
2023-04-30T16:03:09.960Z,16.80
2023-04-30T16:05:38.833Z,16.70
2023-04-30T16:08:10.251Z,16.70
2023-04-30T16:10:38.665Z,16.60
2023-04-30T16:13:05.409Z,16.70
2023-04-30T16:15:32.366Z,16.60
2023-04-30T16:17:59.711Z,16.50
2023-04-30T16:20:27.337Z,16.40
2023-04-30T16:22:55.116Z,16.40
2023-04-30T16:25:22.583Z,16.30
2023-04-30T16:27:49.807Z,16.30
2023-04-30T16:30:16.644Z,16.20
2023-04-30T16:32:44.338Z,16.10
2023-04-30T16:35:11.244Z,16.00
2023-04-30T16:37:37.996Z,16.00
2023-04-30T16:40:06.445Z,15.90
2023-04-30T16:42:34.921Z,15.70
2023-04-30T16:45:01.785Z,15.60
2023-04-30T16:47:28.807Z,15.50
2023-04-30T16:49:56.730Z,15.50
2023-04-30T16:52:24.239Z,15.40
2023-04-30T16:54:50.942Z,15.40
2023-04-30T16:57:17.657Z,15.40
2023-04-30T16:59:44.330Z,15.40
2023-04-30T17:02:11.355Z,15.30
2023-04-30T17:04:38.080Z,15.30
2023-04-30T17:07:04.738Z,15.30
2023-04-30T17:09:31.422Z,15.20
2023-04-30T17:11:58.270Z,15.10
2023-04-30T17:14:25.017Z,15.00
2023-04-30T17:16:51.714Z,15.00
2023-04-30T17:19:18.507Z,15.00
2023-04-30T17:21:45.379Z,15.00
2023-04-30T17:24:12.100Z,15.00
2023-04-30T17:26:38.760Z,14.90
2023-04-30T17:29:06.226Z,14.80
2023-04-30T17:31:33.265Z,14.70
2023-04-30T17:34:00.368Z,14.60
2023-04-30T17:36:30.495Z,14.50
2023-04-30T17:38:57.423Z,14.50
2023-04-30T17:41:24.197Z,14.50
2023-04-30T17:43:51.848Z,14.40
2023-04-30T17:46:18.747Z,14.30
2023-04-30T17:48:46.048Z,14.30
2023-04-30T17:51:12.952Z,14.20
2023-04-30T17:53:40.564Z,14.10
2023-04-30T17:56:08.851Z,14.00
2023-04-30T17:58:36.164Z,13.90
2023-04-30T18:01:05.511Z,13.80
2023-04-30T18:03:32.539Z,13.80
2023-04-30T18:05:59.656Z,13.80
2023-04-30T18:08:26.985Z,13.70
2023-04-30T18:10:55.329Z,13.70
2023-04-30T18:13:22.549Z,13.60
2023-04-30T18:15:49.333Z,13.60
2023-04-30T18:18:16.380Z,13.50
2023-04-30T18:20:43.259Z,13.50
2023-04-30T18:23:10.183Z,13.40
2023-04-30T18:25:37.272Z,13.30
2023-04-30T18:28:04.139Z,13.30
2023-04-30T18:30:31.594Z,13.20
2023-04-30T18:32:58.320Z,13.20
2023-04-30T18:35:25.027Z,13.20
2023-04-30T18:37:51.973Z,13.20
2023-04-30T18:40:19.160Z,13.10
2023-04-30T18:42:46.394Z,13.10
2023-04-30T18:45:14.640Z,13.00
2023-04-30T18:47:41.959Z,12.90
2023-04-30T18:50:15.407Z,12.90
2023-04-30T18:52:42.444Z,12.80
2023-04-30T18:55:11.609Z,12.80
2023-04-30T18:57:40.567Z,12.70
2023-04-30T19:00:09.530Z,12.70
2023-04-30T19:02:36.360Z,12.70
2023-04-30T19:05:03.682Z,12.60
2023-04-30T19:07:30.541Z,12.60
2023-04-30T19:09:58.309Z,12.60
2023-04-30T19:12:25.056Z,12.50
2023-04-30T19:14:51.750Z,12.50
2023-04-30T19:17:21.466Z,12.50
2023-04-30T19:19:50.197Z,12.40
2023-04-30T19:22:17.405Z,12.30
2023-04-30T19:24:44.380Z,12.20
2023-04-30T19:27:11.504Z,12.20
2023-04-30T19:29:39.507Z,12.20
2023-04-30T19:32:06.579Z,12.20
2023-04-30T19:34:33.603Z,12.10
2023-04-30T19:37:00.648Z,12.10
2023-04-30T19:39:34.618Z,12.10
2023-04-30T19:42:01.643Z,12.00
2023-04-30T19:44:29.466Z,12.00
2023-04-30T19:46:56.523Z,11.90
2023-04-30T19:49:26.077Z,11.90
2023-04-30T19:51:54.037Z,11.80
2023-04-30T19:54:21.038Z,11.80
2023-04-30T19:56:47.945Z,11.80
2023-04-30T19:59:14.898Z,11.70
2023-04-30T20:01:42.489Z,11.70
2023-04-30T20:04:09.804Z,11.70
2023-04-30T20:06:36.949Z,11.60
2023-04-30T20:09:04.111Z,11.60
2023-04-30T20:11:30.885Z,11.50
2023-04-30T20:13:57.688Z,11.50
2023-04-30T20:16:24.450Z,11.50
2023-04-30T20:18:51.266Z,11.50
2023-04-30T20:21:20.508Z,11.60
2023-04-30T20:23:47.624Z,11.50
2023-04-30T20:26:14.598Z,11.50
2023-04-30T20:28:41.342Z,11.40
2023-04-30T20:31:09.902Z,11.40
2023-04-30T20:33:36.787Z,11.40
2023-04-30T20:36:03.775Z,11.40
2023-04-30T20:38:30.955Z,11.30
2023-04-30T20:40:58.815Z,11.30
2023-04-30T20:43:25.556Z,11.30
2023-04-30T20:45:56.243Z,11.30
2023-04-30T20:48:22.963Z,11.20
2023-04-30T20:50:49.868Z,11.20
2023-04-30T20:53:16.958Z,11.20
2023-04-30T20:55:44.087Z,11.20
2023-04-30T20:58:11.165Z,11.20
2023-04-30T21:00:37.850Z,11.20
2023-04-30T21:03:04.722Z,11.20
2023-04-30T21:05:32.157Z,11.00
2023-04-30T21:08:01.569Z,11.00
2023-04-30T21:10:35.063Z,11.00
2023-04-30T21:13:03.924Z,11.00
2023-04-30T21:15:31.983Z,11.00
2023-04-30T21:17:58.777Z,10.90
2023-04-30T21:20:25.633Z,10.90
2023-04-30T21:22:54.963Z,10.90
2023-04-30T21:25:22.281Z,10.90
2023-04-30T21:27:49.050Z,10.90
2023-04-30T21:30:16.939Z,10.90
2023-04-30T21:32:47.148Z,10.90
2023-04-30T21:35:14.736Z,10.80
2023-04-30T21:37:42.139Z,10.70
2023-04-30T21:40:09.576Z,10.70
2023-04-30T21:42:36.489Z,10.80
2023-04-30T21:45:03.620Z,10.70
2023-04-30T21:47:30.675Z,10.80
2023-04-30T21:49:58.819Z,10.70
2023-04-30T21:52:26.133Z,10.70
2023-04-30T21:54:52.799Z,10.70
2023-04-30T21:57:19.667Z,10.70
2023-04-30T21:59:46.422Z,10.60
2023-04-30T22:04:46.927Z,10.60
2023-04-30T22:07:13.700Z,10.60
2023-04-30T22:09:40.676Z,10.60
2023-04-30T22:12:09.095Z,10.70
2023-04-30T22:14:35.879Z,10.70
2023-04-30T22:17:02.554Z,10.70
2023-04-30T22:19:29.394Z,10.60
2023-04-30T22:21:56.080Z,10.70
2023-04-30T22:24:22.781Z,10.70
2023-04-30T22:26:49.888Z,10.60
2023-04-30T22:29:16.929Z,10.50
2023-04-30T22:31:43.763Z,10.40
2023-04-30T22:34:10.593Z,10.30
2023-04-30T22:36:37.249Z,10.30
2023-04-30T22:39:04.513Z,10.20
2023-04-30T22:41:34.215Z,10.20
2023-04-30T22:44:01.186Z,10.20
2023-04-30T22:46:29.844Z,10.20
2023-04-30T22:48:57.414Z,10.20
2023-04-30T22:51:24.274Z,10.20
2023-04-30T22:53:50.989Z,10.20
2023-04-30T22:56:17.787Z,10.20
2023-04-30T22:58:44.468Z,10.20
2023-04-30T23:01:11.286Z,10.20
2023-04-30T23:03:38.691Z,10.20
2023-04-30T23:06:05.480Z,10.20
2023-04-30T23:08:32.203Z,10.10
2023-04-30T23:10:58.929Z,10.10
2023-04-30T23:13:25.569Z,10.10
2023-04-30T23:15:52.376Z,10.10
2023-04-30T23:18:20.465Z,10.10
2023-04-30T23:20:47.576Z,10.10
2023-04-30T23:23:14.249Z,10.10
2023-04-30T23:25:41.333Z,10.10
2023-04-30T23:28:08.328Z,10.10
2023-04-30T23:30:39.193Z,10.10
2023-04-30T23:33:06.041Z,10.10
2023-04-30T23:35:32.721Z,10.00
2023-04-30T23:37:59.473Z,9.90
2023-04-30T23:40:26.122Z,9.90
2023-04-30T23:42:52.788Z,9.90
2023-04-30T23:45:20.942Z,9.90
2023-04-30T23:47:48.388Z,9.80
2023-04-30T23:50:15.117Z,9.80
2023-04-30T23:52:41.800Z,9.80
2023-04-30T23:55:08.700Z,9.80
2023-04-30T23:57:35.557Z,9.80
